Time;durP1;ratioP1;P1;durP2;ratioP2;P2;SDS_P1;SDS_P2;PMS_P1;PMS_P2;Temp;Humidity;BMP_temperature;BMP_pressure;BME280_temperature;BME280_humidity;BME280_pressure;Samples;Min_cycle;Max_cycle;Signal;HPM_P1;HPM_P2
2024/02/08 00:01:42;;;;;;;16.07;12.73;;;1.40;89.40;;;;;;5015950;28;20256;-86
2024/02/08 00:04:07;;;;;;;27.23;13.70;;;1.40;89.20;;;;;;5033429;28;20648;-86
2024/02/08 00:06:33;;;;;;;22.80;12.50;;;1.40;89.10;;;;;;5015950;28;20184;-86
2024/02/08 00:09:02;;;;;;;17.57;12.47;;;1.40;89.00;;;;;;5015816;28;20196;-86
2024/02/08 00:11:28;;;;;;;22.47;12.97;;;1.40;89.00;;;;;;5033456;28;20179;-86
2024/02/08 00:13:54;;;;;;;27.33;14.30;;;1.50;88.70;;;;;;5033514;28;20173;-86
2024/02/08 00:16:20;;;;;;;16.13;12.80;;;1.50;88.50;;;;;;5015673;28;20184;-84
2024/02/08 00:18:45;;;;;;;23.77;13.80;;;1.50;88.50;;;;;;5015403;28;20262;-86
2024/02/08 00:21:13;;;;;;;29.83;13.33;;;1.50;88.70;;;;;;5015664;28;20204;-85
2024/02/08 00:23:38;;;;;;;23.43;12.67;;;1.60;89.10;;;;;;5033353;28;20215;-85
2024/02/08 00:26:04;;;;;;;21.60;13.47;;;1.50;89.30;;;;;;5015752;28;20176;-86
2024/02/08 00:28:30;;;;;;;35.50;16.27;;;1.40;89.60;;;;;;5033290;28;20189;-86
2024/02/08 00:30:55;;;;;;;29.27;15.23;;;1.60;90.00;;;;;;5033552;28;20215;-86
2024/02/08 00:33:24;;;;;;;25.77;13.50;;;1.60;90.00;;;;;;5015878;28;20187;-87
2024/02/08 00:35:49;;;;;;;18.97;12.33;;;1.50;90.00;;;;;;5033528;28;20255;-85
2024/02/08 00:38:15;;;;;;;18.40;12.33;;;1.50;90.20;;;;;;5032956;28;20283;-84
2024/02/08 00:40:41;;;;;;;25.73;13.53;;;1.40;90.50;;;;;;5033077;28;20173;-86
2024/02/08 00:43:07;;;;;;;26.20;13.13;;;1.30;90.50;;;;;;5033070;28;20255;-90
2024/02/08 00:45:33;;;;;;;21.40;12.83;;;1.30;90.50;;;;;;5016019;28;20267;-86
2024/02/08 00:47:59;;;;;;;24.93;13.97;;;1.20;90.50;;;;;;5015469;28;20196;-87
2024/02/08 00:50:25;;;;;;;28.43;25.40;;;1.10;90.40;;;;;;5015429;28;20180;-86
2024/02/08 00:52:52;;;;;;;28.60;24.37;;;1.20;90.50;;;;;;5015516;28;20287;-86
2024/02/08 00:55:18;;;;;;;26.43;23.47;;;1.10;90.50;;;;;;5015482;28;20176;-88
2024/02/08 00:57:44;;;;;;;26.37;23.13;;;1.10;90.60;;;;;;5015307;28;20783;-85
2024/02/08 01:00:10;;;;;;;30.03;23.60;;;1.00;90.70;;;;;;5015596;28;20256;-86
2024/02/08 01:02:35;;;;;;;22.37;13.13;;;1.10;90.60;;;;;;5032788;28;20370;-85
2024/02/08 01:05:01;;;;;;;28.37;13.87;;;1.10;90.50;;;;;;5032941;28;20260;-86
2024/02/08 01:07:31;;;;;;;33.70;21.90;;;1.00;90.60;;;;;;5032858;28;20208;-86
2024/02/08 01:10:00;;;;;;;34.53;22.70;;;1.00;90.70;;;;;;5015089;28;20185;-85
2024/02/08 01:12:26;;;;;;;28.97;22.93;;;1.00;90.80;;;;;;5032726;28;20231;-85
2024/02/08 01:14:52;;;;;;;38.20;25.73;;;1.00;90.80;;;;;;5015086;28;20181;-85
2024/02/08 01:17:18;;;;;;;26.97;22.60;;;1.00;90.80;;;;;;5014958;28;20684;-85
2024/02/08 01:19:44;;;;;;;30.70;24.00;;;1.10;90.80;;;;;;5015044;28;20226;-85
2024/02/08 01:22:11;;;;;;;37.47;25.03;;;1.20;90.60;;;;;;5015412;28;20226;-85
2024/02/08 01:24:37;;;;;;;31.20;21.87;;;1.30;90.30;;;;;;5032752;28;20164;-85
2024/02/08 01:27:04;;;;;;;20.10;12.27;;;1.30;90.10;;;;;;5032694;28;20626;-85
2024/02/08 01:29:29;;;;;;;25.27;13.10;;;1.30;89.90;;;;;;5032736;28;20671;-86
2024/02/08 01:31:55;;;;;;;22.03;12.37;;;1.30;89.70;;;;;;5035281;28;20172;-85
2024/02/08 01:34:28;;;;;;;23.93;13.73;;;1.30;89.70;;;;;;5018768;28;20192;-86
2024/02/08 01:36:54;;;;;;;18.73;13.20;;;1.30;89.70;;;;;;5036196;28;20315;-86
2024/02/08 01:39:23;;;;;;;18.00;12.83;;;1.30;89.70;;;;;;5036325;28;20710;-85
2024/02/08 01:41:52;;;;;;;27.17;14.10;;;1.30;89.70;;;;;;5036443;28;20176;-85
2024/02/08 01:44:18;;;;;;;22.80;13.03;;;1.30;89.70;;;;;;5018563;28;20176;-87
2024/02/08 01:46:43;;;;;;;13.90;12.53;;;1.30;89.50;;;;;;5036438;28;20187;-85
2024/02/08 01:49:16;;;;;;;15.07;13.57;;;1.30;89.40;;;;;;5036109;28;20188;-86
2024/02/08 01:51:43;;;;;;;20.20;13.67;;;1.30;89.40;;;;;;5018455;28;20613;-85
2024/02/08 01:54:10;;;;;;;18.50;13.43;;;1.40;89.30;;;;;;5035997;28;20275;-86
2024/02/08 01:56:42;;;;;;;18.33;12.67;;;1.40;89.20;;;;;;5018347;28;20184;-86
2024/02/08 01:59:19;;;;;;;21.03;14.63;;;1.50;89.10;;;;;;5035911;28;20193;-86
2024/02/08 02:01:50;;;;;;;19.67;13.30;;;1.60;89.00;;;;;;5035816;28;20161;-86
2024/02/08 02:04:19;;;;;;;17.97;13.40;;;1.70;88.90;;;;;;5035997;28;20157;-86
2024/02/08 02:06:46;;;;;;;22.93;15.47;;;1.60;88.70;;;;;;5018253;28;20185;-86
2024/02/08 02:09:23;;;;;;;26.93;15.60;;;1.60;88.30;;;;;;5035800;28;20196;-86
2024/02/08 02:12:07;;;;;;;21.77;14.87;;;1.60;87.60;;;;;;5035787;28;20167;-86
2024/02/08 02:14:35;;;;;;;31.13;15.50;;;1.60;87.50;;;;;;5035820;28;20149;-86
2024/02/08 02:17:14;;;;;;;17.50;14.83;;;1.60;87.20;;;;;;5035548;28;20200;-86
2024/02/08 02:19:41;;;;;;;18.80;15.33;;;1.60;86.90;;;;;;5017815;28;20542;-85
2024/02/08 02:22:08;;;;;;;34.43;30.83;;;1.60;86.60;;;;;;5017930;28;20179;-85
2024/02/08 02:24:36;;;;;;;34.30;30.87;;;1.70;86.20;;;;;;5017973;28;20200;-85
2024/02/08 02:27:06;;;;;;;34.57;30.80;;;1.70;86.20;;;;;;5035772;28;20176;-85
2024/02/08 02:29:33;;;;;;;34.13;30.67;;;1.70;86.30;;;;;;5035730;28;20172;-86
2024/02/08 02:32:00;;;;;;;31.50;29.00;;;1.70;86.00;;;;;;5035392;28;20205;-86
2024/02/08 02:34:30;;;;;;;34.53;31.47;;;1.70;86.00;;;;;;5035326;28;20649;-86
2024/02/08 02:37:00;;;;;;;34.57;31.43;;;1.70;86.00;;;;;;5035460;28;20193;-84
2024/02/08 02:39:30;;;;;;;31.87;28.57;;;1.70;86.00;;;;;;5017573;28;20219;-86
2024/02/08 02:41:57;;;;;;;35.65;32.15;;;1.80;86.10;;;;;;5017080;28;20556;-85
2024/02/08 02:44:22;;;;;;;;;;;1.70;86.00;;;;;;5034977;28;19939;-85
2024/02/08 02:46:49;;;;;;;23.30;16.63;;;1.80;86.00;;;;;;5035320;28;19915;-84
2024/02/08 02:49:17;;;;;;;26.17;17.77;;;1.70;85.90;;;;;;5017436;28;20645;-86
2024/02/08 02:51:48;;;;;;;27.23;17.00;;;1.70;85.90;;;;;;5034895;28;20177;-86
2024/02/08 02:54:17;;;;;;;22.73;16.67;;;1.70;86.20;;;;;;5034976;28;20153;-87
2024/02/08 02:56:50;;;;;;;23.73;16.50;;;1.70;86.40;;;;;;5017082;28;20185;-84
2024/02/08 02:59:16;;;;;;;23.30;16.70;;;1.70;86.40;;;;;;5034933;28;20161;-86
2024/02/08 03:01:49;;;;;;;21.30;15.93;;;1.70;86.60;;;;;;5017183;28;20227;-86
2024/02/08 03:04:18;;;;;;;17.93;16.17;;;1.70;86.60;;;;;;5034903;28;20652;-86
2024/02/08 03:06:45;;;;;;;23.60;16.90;;;1.70;86.60;;;;;;5035003;28;20177;-85
2024/02/08 03:09:23;;;;;;;23.13;16.63;;;1.70;86.60;;;;;;5016941;28;20205;-86
2024/02/08 03:11:49;;;;;;;19.60;16.67;;;1.70;86.70;;;;;;5034778;28;20577;-86
2024/02/08 03:14:15;;;;;;;23.40;16.17;;;1.70;86.70;;;;;;5034582;28;20191;-86
2024/02/08 03:16:41;;;;;;;28.33;16.87;;;1.70;86.70;;;;;;5016675;28;20181;-86
2024/02/08 03:19:07;;;;;;;22.93;16.83;;;1.70;86.80;;;;;;5016707;28;20200;-85
2024/02/08 03:21:36;;;;;;;24.63;17.40;;;1.80;86.90;;;;;;5034486;28;20672;-86
2024/02/08 03:24:08;;;;;;;26.60;16.93;;;1.70;86.90;;;;;;5034377;28;20171;-85
2024/02/08 03:26:43;;;;;;;22.07;17.73;;;1.70;87.00;;;;;;5017474;28;20235;-86
2024/02/08 03:29:11;;;;;;;23.70;17.20;;;1.80;87.10;;;;;;5034197;28;20667;-86
2024/02/08 03:31:44;;;;;;;27.27;17.73;;;1.70;87.10;;;;;;5034124;28;20526;-86
2024/02/08 03:34:29;;;;;;;22.97;16.40;;;1.60;87.20;;;;;;5034223;28;20156;-86
2024/02/08 03:36:56;;;;;;;27.10;16.97;;;1.60;87.60;;;;;;5016233;28;20203;-86
2024/02/08 03:39:25;;;;;;;23.67;16.83;;;1.60;87.60;;;;;;5016463;28;20192;-86
2024/02/08 03:41:58;;;;;;;32.17;29.00;;;1.50;87.50;;;;;;5034125;28;20172;-86
2024/02/08 03:44:24;;;;;;;28.73;26.07;;;1.40;87.50;;;;;;5033969;28;20648;-86
2024/02/08 03:46:53;;;;;;;30.00;26.80;;;1.40;87.70;;;;;;5034335;28;20176;-86
2024/02/08 03:49:19;;;;;;;38.70;29.87;;;1.40;87.70;;;;;;5033972;28;20179;-86
2024/02/08 03:51:47;;;;;;;41.57;29.83;;;1.40;87.80;;;;;;5016018;28;20188;-86
2024/02/08 03:54:16;;;;;;;32.17;29.03;;;1.40;87.70;;;;;;5033644;28;20175;-86
2024/02/08 03:56:42;;;;;;;31.40;28.00;;;1.40;87.70;;;;;;5033944;28;20282;-86
2024/02/08 03:59:12;;;;;;;33.03;28.60;;;1.40;87.90;;;;;;5016252;28;20197;-87
2024/02/08 04:01:42;;;;;;;31.50;28.57;;;1.40;88.00;;;;;;5034510;28;20267;-85
2024/02/08 04:04:12;;;;;;;32.93;26.73;;;1.30;88.20;;;;;;5016409;28;20161;-87
2024/02/08 04:07:00;;;;;;;33.70;26.97;;;1.30;88.40;;;;;;5034553;28;20172;-86
2024/02/08 04:09:33;;;;;;;29.87;26.80;;;1.40;88.60;;;;;;5033872;28;20272;-86
2024/02/08 04:55:56;;;;;;;31.30;28.10;;;1.30;89.00;;;;;;5034045;28;20168;-87
2024/02/08 04:58:21;;;;;;;28.47;25.47;;;1.30;89.10;;;;;;5015591;28;20583;-87
2024/02/08 05:00:47;;;;;;;33.33;29.70;;;1.30;89.10;;;;;;5033463;28;20535;-86
2024/02/08 05:03:16;;;;;;;35.30;29.23;;;1.40;89.10;;;;;;5033312;28;20242;-86
2024/02/08 05:05:43;;;;;;;35.80;31.90;;;1.40;89.10;;;;;;5015945;28;20173;-86
2024/02/08 05:08:10;;;;;;;42.83;29.00;;;1.40;89.10;;;;;;5037408;28;20191;-86
2024/02/08 05:10:36;;;;;;;34.33;27.83;;;1.40;89.10;;;;;;5020003;28;20180;-86
2024/02/08 05:13:04;;;;;;;29.37;25.90;;;1.40;89.00;;;;;;5019587;28;20226;-86
2024/02/08 05:15:30;;;;;;;23.77;16.40;;;1.40;89.10;;;;;;5037409;28;20173;-86
2024/02/08 05:17:56;;;;;;;23.53;16.47;;;1.40;89.10;;;;;;5019544;28;20212;-86
2024/02/08 05:20:22;;;;;;;28.87;16.33;;;1.30;89.10;;;;;;5037295;28;20629;-85
2024/02/08 05:22:48;;;;;;;28.77;16.93;;;1.30;89.20;;;;;;5037189;28;20176;-86
2024/02/08 05:25:14;;;;;;;29.03;16.97;;;1.40;89.20;;;;;;5019562;28;20314;-86
2024/02/08 05:27:39;;;;;;;18.10;15.20;;;1.40;89.10;;;;;;5037471;28;20232;-85
2024/02/08 05:30:05;;;;;;;24.10;16.20;;;1.40;89.20;;;;;;5037044;28;20258;-86
2024/02/08 05:32:33;;;;;;;26.53;16.03;;;1.40;89.00;;;;;;5019269;28;20559;-85
2024/02/08 05:35:02;;;;;;;26.30;15.77;;;1.40;88.80;;;;;;5019391;28;20173;-86
2024/02/08 05:37:29;;;;;;;26.37;15.87;;;1.40;88.70;;;;;;5037054;28;20233;-87
2024/02/08 05:39:55;;;;;;;21.70;15.77;;;1.40;88.80;;;;;;5037118;28;20177;-86
2024/02/08 05:42:24;;;;;;;26.07;16.23;;;1.30;88.80;;;;;;5019510;28;20470;-85
2024/02/08 05:45:18;;;;;;;22.23;15.70;;;1.30;88.90;;;;;;5037611;28;20259;-87
2024/02/08 05:47:38;;;;;;;20.43;15.03;;;1.40;88.90;;;;;;5036599;28;20205;-86
2024/02/08 05:50:06;;;;;;;26.80;15.53;;;1.40;89.00;;;;;;5019303;28;20246;-86
2024/02/08 05:52:33;;;;;;;27.47;16.13;;;1.30;89.10;;;;;;5019170;28;20224;-87
2024/02/08 05:54:58;;;;;;;26.33;16.07;;;1.40;89.10;;;;;;5036694;28;20179;-87
2024/02/08 05:57:24;;;;;;;21.27;15.47;;;1.40;89.20;;;;;;5018726;28;20315;-85
2024/02/08 05:59:52;;;;;;;28.30;16.23;;;1.40;89.10;;;;;;5019273;28;20240;-88
2024/02/08 06:02:24;;;;;;;23.97;16.00;;;1.30;89.10;;;;;;5020215;28;20641;-87
2024/02/08 06:04:59;;;;;;;26.63;17.07;;;1.40;89.10;;;;;;5020152;28;20621;-86
2024/02/08 06:07:29;;;;;;;25.43;15.37;;;1.30;89.10;;;;;;5037609;28;20196;-88
2024/02/08 06:10:07;;;;;;;23.00;15.10;;;1.30;89.10;;;;;;5019874;28;20199;-87
2024/02/08 06:12:51;;;;;;;19.50;14.80;;;1.40;89.10;;;;;;5037404;28;20167;-87
2024/02/08 06:15:33;;;;;;;24.93;16.80;;;1.40;89.20;;;;;;5037813;28;20218;-87
2024/02/08 06:18:04;;;;;;;29.60;18.60;;;1.40;89.20;;;;;;5019110;28;20251;-87
2024/02/08 06:20:33;;;;;;;24.97;17.30;;;1.40;89.10;;;;;;5037704;28;20145;-87
2024/02/08 06:23:15;;;;;;;20.30;16.80;;;1.50;89.00;;;;;;5037455;28;20189;-86
2024/02/08 06:25:45;;;;;;;32.23;16.67;;;1.40;89.00;;;;;;5019659;28;20198;-87
2024/02/08 06:28:12;;;;;;;28.37;17.23;;;1.50;89.20;;;;;;5037107;28;20280;-88
2024/02/08 06:30:46;;;;;;;34.13;17.30;;;1.50;89.30;;;;;;5037366;28;20173;-87
2024/02/08 06:33:25;;;;;;;24.67;17.47;;;1.50;89.30;;;;;;5038009;28;20250;-87
2024/02/08 06:35:56;;;;;;;32.00;16.43;;;1.30;89.40;;;;;;5019542;28;20667;-89
2024/02/08 06:38:40;;;;;;;31.27;17.00;;;1.30;89.60;;;;;;5019504;28;20217;-87
2024/02/08 06:41:23;;;;;;;30.17;27.47;;;1.30;89.70;;;;;;5037630;28;20153;-87
2024/02/08 06:44:42;;;;;;;31.30;28.17;;;1.30;89.80;;;;;;5019307;28;20284;-87
2024/02/08 06:47:17;;;;;;;29.47;26.37;;;1.40;89.90;;;;;;5036964;28;20200;-87
2024/02/08 07:39:21;;;;;;;27.00;16.13;;;1.30;90.40;;;;;;5036125;28;20219;-87
2024/02/08 07:41:40;;;;;;;29.40;16.23;;;1.30;90.50;;;;;;5036506;28;20175;-87
2024/02/08 07:44:09;;;;;;;20.83;15.40;;;1.40;90.60;;;;;;5037755;28;20223;-88
2024/02/08 07:46:40;;;;;;;28.87;15.43;;;1.40;90.70;;;;;;5038267;28;20180;-88
2024/02/08 07:49:05;;;;;;;26.17;15.83;;;1.30;90.70;;;;;;5037735;28;20548;-87
2024/02/08 07:51:33;;;;;;;25.43;15.33;;;1.40;90.70;;;;;;5020173;28;20203;-87
2024/02/08 07:53:59;;;;;;;21.50;15.13;;;1.40;90.60;;;;;;5019626;28;20173;-87
2024/02/08 07:56:37;;;;;;;24.27;17.03;;;1.50;90.60;;;;;;5020059;28;20677;-88
2024/02/08 07:59:10;;;;;;;32.17;17.30;;;1.50;90.50;;;;;;5020186;28;20209;-88
2024/02/08 08:01:38;;;;;;;26.97;17.33;;;1.50;90.50;;;;;;5038388;28;20148;-87
2024/02/08 08:04:09;;;;;;;37.07;18.13;;;1.50;90.50;;;;;;5038803;28;20175;-87
2024/02/08 08:06:46;;;;;;;28.93;17.53;;;1.60;90.50;;;;;;5020038;28;20236;-87
2024/02/08 08:09:19;;;;;;;23.77;18.17;;;1.60;90.40;;;;;;5020080;28;20303;-87
2024/02/08 08:11:48;;;;;;;30.03;17.53;;;1.60;90.40;;;;;;5037318;28;20153;-89
2024/02/08 08:19:44;;;;;;;30.50;16.97;;;1.60;90.40;;;;;;5038441;28;20161;-89
2024/02/08 08:22:19;;;;;;;24.60;16.57;;;1.60;90.40;;;;;;5020125;28;20184;-88
2024/02/08 08:25:10;;;;;;;25.17;16.67;;;1.60;90.50;;;;;;5020096;28;20596;-88
2024/02/08 08:27:52;;;;;;;28.73;17.10;;;1.60;90.60;;;;;;5037209;28;20196;-87
2024/02/08 08:30:27;;;;;;;18.13;15.10;;;1.60;90.60;;;;;;5019518;28;20636;-87
2024/02/08 08:35:45;;;;;;;19.93;15.83;;;1.70;90.70;;;;;;5038454;28;20165;-87
2024/02/08 08:40:47;;;;;;;27.90;23.87;;;1.70;90.70;;;;;;5037854;28;20157;-88
2024/02/08 08:43:22;;;;;;;31.20;25.57;;;1.80;90.60;;;;;;5038166;28;20161;-88
2024/02/08 08:45:53;;;;;;;33.87;26.30;;;1.80;90.60;;;;;;5037381;28;20144;-87
2024/02/08 08:48:20;;;;;;;31.23;26.73;;;1.90;90.60;;;;;;5019849;28;20205;-87
2024/02/08 08:50:55;;;;;;;24.60;18.07;;;1.90;90.60;;;;;;5037167;28;20182;-87
2024/02/08 08:53:27;;;;;;;25.60;17.97;;;1.90;90.50;;;;;;5019613;28;20216;-87
2024/02/08 08:55:55;;;;;;;39.63;29.50;;;1.90;90.50;;;;;;5019343;28;20197;-88
2024/02/08 08:58:39;;;;;;;34.67;31.03;;;1.90;90.40;;;;;;5019815;28;20569;-87
2024/02/08 09:01:17;;;;;;;32.33;29.00;;;1.90;90.20;;;;;;5037773;28;20273;-87
2024/02/08 09:03:55;;;;;;;40.03;31.73;;;1.90;90.00;;;;;;5037577;28;20150;-88
2024/02/08 09:06:27;;;;;;;32.33;29.17;;;1.90;89.90;;;;;;5038261;28;20534;-88
2024/02/08 09:08:56;;;;;;;32.27;28.90;;;1.90;89.90;;;;;;5037992;28;20198;-87
2024/02/08 09:11:24;;;;;;;40.70;30.83;;;1.90;89.90;;;;;;5020070;28;20546;-87
2024/02/08 09:13:55;;;;;;;33.73;30.33;;;1.90;89.90;;;;;;5020357;28;20200;-87
2024/02/08 09:19:27;;;;;;;36.85;32.08;;;1.90;89.90;;;;;;5037299;28;20446;-89
2024/02/08 09:21:41;;;;;;;35.13;31.33;;;2.10;90.00;;;;;;5033438;28;20192;-87
2024/02/08 09:24:17;;;;;;;26.17;18.33;;;2.00;89.90;;;;;;5037742;28;20558;-87
2024/02/08 09:26:52;;;;;;;25.70;18.70;;;2.00;90.10;;;;;;5037942;28;20159;-88
2024/02/08 09:29:24;;;;;;;22.67;17.40;;;2.00;90.10;;;;;;5037744;28;20247;-88
2024/02/08 09:31:58;;;;;;;22.87;16.87;;;2.00;90.30;;;;;;5038671;28;20162;-88
2024/02/08 09:34:37;;;;;;;23.67;17.27;;;2.00;90.50;;;;;;5020560;28;20251;-89
2024/02/08 09:37:10;;;;;;;26.00;16.63;;;2.00;90.60;;;;;;5020743;28;20176;-88
2024/02/08 09:42:26;;;;;;;26.03;17.40;;;2.00;90.60;;;;;;5039686;28;20168;-87
2024/02/08 09:44:56;;;;;;;29.43;17.03;;;2.20;90.80;;;;;;5022111;28;20625;-89
2024/02/08 09:47:31;;;;;;;18.73;16.70;;;2.30;90.70;;;;;;5036609;28;20698;-88
2024/02/08 09:50:00;;;;;;;22.53;17.10;;;2.30;90.70;;;;;;5019811;28;20168;-86
2024/02/08 09:52:40;;;;;;;31.83;19.87;;;2.30;90.60;;;;;;5038667;28;20274;-87
2024/02/08 09:55:18;;;;;;;27.17;18.70;;;2.30;90.50;;;;;;5025861;28;20630;-88
2024/02/08 09:57:47;;;;;;;24.70;19.10;;;2.40;90.40;;;;;;5043900;28;20207;-87
2024/02/08 10:03:31;;;;;;;26.83;19.30;;;2.40;90.20;;;;;;4989846;28;20187;-88
2024/02/08 10:06:00;;;;;;;23.33;19.47;;;2.50;90.20;;;;;;5044982;28;20184;-88
2024/02/08 10:08:28;;;;;;;30.40;21.85;;;2.60;90.00;;;;;;5037114;28;20417;-86
2024/02/08 10:11:11;;;;;;;26.77;20.00;;;2.60;90.00;;;;;;5018273;28;20664;-86
2024/02/08 10:16:43;;;;;;;32.03;24.20;;;2.70;89.60;;;;;;4991047;28;20546;-86
2024/02/08 10:20:32;;;;;;;30.60;21.47;;;2.70;89.40;;;;;;5035863;28;20686;-86
2024/02/08 10:22:17;;;;;;;30.90;20.97;;;2.80;89.40;;;;;;5021950;28;20185;-87
2024/02/08 10:27:20;;;;;;;27.03;20.90;;;2.90;89.20;;;;;;5036346;28;20200;-86
2024/02/08 10:29:58;;;;;;;33.03;21.30;;;2.90;89.10;;;;;;5017918;28;20183;-85
2024/02/08 10:32:27;;;;;;;25.57;21.13;;;2.90;89.10;;;;;;5018193;28;20702;-87
2024/02/08 10:35:13;;;;;;;26.17;21.97;;;2.90;89.10;;;;;;5035590;28;20258;-86
2024/02/08 10:37:53;;;;;;;30.97;22.33;;;2.90;89.10;;;;;;5035929;28;20208;-87
2024/02/08 10:40:29;;;;;;;27.87;21.93;;;3.00;89.00;;;;;;5035650;28;20149;-90
2024/02/08 10:42:58;;;;;;;29.97;23.23;;;3.00;88.90;;;;;;5035684;28;20159;-86
2024/02/08 10:45:25;;;;;;;29.47;23.30;;;3.00;89.00;;;;;;5035493;28;20592;-87
2024/02/08 10:47:55;;;;;;;25.60;22.73;;;3.00;88.90;;;;;;5017299;28;20204;-86
2024/02/08 10:50:24;;;;;;;28.03;22.60;;;3.00;88.90;;;;;;5017531;28;20202;-86
2024/02/08 10:52:51;;;;;;;30.67;27.00;;;3.00;88.70;;;;;;5017010;28;20770;-87
2024/02/08 10:55:30;;;;;;;35.93;32.00;;;3.00;88.70;;;;;;5035208;28;20544;-86
2024/02/08 11:03:08;;;;;;;37.97;33.97;;;3.30;88.80;;;;;;5035738;28;20172;-89
2024/02/08 11:08:32;;;;;;;42.97;32.83;;;3.20;88.40;;;;;;5035211;28;20207;-87
2024/02/08 11:11:03;;;;;;;40.93;36.47;;;3.20;88.50;;;;;;5017944;28;20168;-86
2024/02/08 11:13:37;;;;;;;38.03;34.20;;;3.20;88.40;;;;;;5017116;28;20222;-84
2024/02/08 11:16:22;;;;;;;39.50;35.13;;;3.20;88.40;;;;;;5017134;28;20190;-85
2024/02/08 11:18:52;;;;;;;37.20;33.63;;;3.20;88.30;;;;;;5016667;28;20665;-87
2024/02/08 11:21:24;;;;;;;39.10;35.50;;;3.30;88.30;;;;;;5034651;28;20179;-86
2024/02/08 11:23:53;;;;;;;37.87;34.20;;;3.30;88.30;;;;;;5017460;28;20165;-92
2024/02/08 11:26:25;;;;;;;38.37;34.53;;;3.30;88.40;;;;;;5017011;28;20264;-85
2024/02/08 11:29:05;;;;;;;37.43;33.73;;;3.30;88.20;;;;;;5034586;28;20267;-86
2024/02/08 11:31:41;;;;;;;38.33;34.33;;;3.40;88.10;;;;;;5034360;28;20163;-88
2024/02/08 11:34:13;;;;;;;47.13;36.10;;;3.30;88.10;;;;;;5016716;28;20160;-86
2024/02/08 11:36:42;;;;;;;41.50;35.77;;;3.30;88.10;;;;;;5034272;28;20546;-86
2024/02/08 11:39:33;;;;;;;39.37;35.27;;;3.40;88.20;;;;;;5034109;28;20219;-86
2024/02/08 11:42:05;;;;;;;39.30;33.20;;;3.50;88.30;;;;;;5034213;28;20153;-86
2024/02/08 11:44:36;;;;;;;26.17;23.50;;;3.50;88.20;;;;;;5034612;28;20736;-86
2024/02/08 11:47:17;;;;;;;25.17;22.60;;;3.50;88.10;;;;;;5034113;28;20150;-86
2024/02/08 11:49:53;;;;;;;27.73;22.80;;;3.50;88.20;;;;;;5017122;28;20169;-87
2024/02/08 11:52:23;;;;;;;27.13;22.83;;;3.60;88.20;;;;;;5034123;28;20236;-88
2024/02/08 11:55:08;;;;;;;25.40;22.67;;;3.60;88.10;;;;;;5016371;28;20682;-88
2024/02/08 11:57:40;;;;;;;25.97;23.37;;;3.60;87.90;;;;;;5034236;28;20204;-88
2024/02/08 12:00:16;;;;;;;28.73;23.70;;;3.70;88.10;;;;;;5016735;28;20173;-87
2024/02/08 12:02:58;;;;;;;25.97;23.10;;;3.70;88.00;;;;;;5035003;28;20535;-88
2024/02/08 12:05:33;;;;;;;31.37;23.07;;;3.70;87.90;;;;;;5034690;28;20606;-87
2024/02/08 12:08:08;;;;;;;33.23;23.80;;;3.80;88.10;;;;;;5034038;28;20191;-87
2024/02/08 12:10:35;;;;;;;28.53;25.13;;;3.80;87.70;;;;;;5034084;28;20172;-88
2024/02/08 12:13:01;;;;;;;26.07;23.43;;;3.80;87.70;;;;;;5017655;28;20183;-87
2024/02/08 12:15:28;;;;;;;30.53;24.67;;;3.80;87.60;;;;;;5033922;28;20181;-87
2024/02/08 12:18:05;;;;;;;30.37;24.93;;;3.90;87.70;;;;;;5015795;28;20208;-87
2024/02/08 12:20:32;;;;;;;31.17;24.87;;;3.90;87.60;;;;;;5016168;28;20184;-87
2024/02/08 12:22:57;;;;;;;38.00;25.47;;;3.90;87.60;;;;;;5016210;28;20176;-87
2024/02/08 12:25:27;;;;;;;30.10;25.10;;;3.90;87.70;;;;;;5016421;28;20168;-87
2024/02/08 12:27:58;;;;;;;35.37;25.73;;;3.90;87.60;;;;;;5015924;28;20574;-87
2024/02/08 12:30:29;;;;;;;34.00;25.47;;;4.00;87.90;;;;;;5016046;28;20230;-87
2024/02/08 12:32:58;;;;;;;28.53;25.10;;;4.20;87.70;;;;;;5016027;28;20706;-87
2024/02/08 12:35:27;;;;;;;33.40;25.90;;;4.30;87.00;;;;;;5016119;28;20644;-87
2024/02/08 12:37:58;;;;;;;28.33;25.40;;;4.30;86.90;;;;;;5033410;28;20690;-87
2024/02/08 12:40:29;;;;;;;30.03;25.97;;;4.30;86.70;;;;;;5016151;28;20620;-87
2024/02/08 12:42:56;;;;;;;29.33;25.50;;;4.30;86.70;;;;;;5034208;28;20157;-87
2024/02/08 12:45:21;;;;;;;27.60;24.83;;;4.10;86.40;;;;;;5015810;28;20652;-87
2024/02/08 12:47:51;;;;;;;39.53;28.40;;;4.10;86.80;;;;;;5015991;28;20315;-87
2024/02/08 12:50:18;;;;;;;28.77;24.60;;;4.20;87.20;;;;;;5016009;28;20172;-87
2024/02/08 12:52:44;;;;;;;36.47;24.73;;;4.30;87.00;;;;;;5015590;28;20224;-88
2024/02/08 12:55:09;;;;;;;27.83;25.03;;;4.40;86.80;;;;;;5015930;28;20177;-87
2024/02/08 12:57:40;;;;;;;29.57;24.50;;;4.40;86.60;;;;;;5016216;28;20208;-87
2024/02/08 13:00:13;;;;;;;30.20;24.57;;;4.40;86.60;;;;;;5015757;28;20184;-87
2024/02/08 13:02:40;;;;;;;25.90;23.33;;;4.40;86.60;;;;;;5015963;28;20774;-87
2024/02/08 13:05:06;;;;;;;26.77;23.33;;;4.50;86.60;;;;;;5015716;28;20223;-87
2024/02/08 13:07:32;;;;;;;25.87;23.03;;;4.50;86.60;;;;;;5015349;28;20200;-87
2024/02/08 13:10:14;;;;;;;39.10;34.97;;;4.50;86.70;;;;;;5015498;28;20181;-87
2024/02/08 13:12:39;;;;;;;36.83;33.00;;;4.40;86.60;;;;;;5033314;28;20160;-87
2024/02/08 13:15:10;;;;;;;36.17;32.80;;;4.40;86.70;;;;;;5033494;28;20175;-87
2024/02/08 13:17:36;;;;;;;37.43;34.03;;;4.40;86.80;;;;;;5015276;28;20205;-87
2024/02/08 13:20:12;;;;;;;37.97;32.13;;;4.30;86.80;;;;;;5015762;28;20227;-88
2024/02/08 13:22:41;;;;;;;37.47;33.77;;;4.30;86.90;;;;;;5016149;28;20540;-88
2024/02/08 13:25:12;;;;;;;38.97;34.47;;;4.30;87.00;;;;;;5033029;28;20169;-87
2024/02/08 13:27:41;;;;;;;38.20;34.17;;;4.30;86.90;;;;;;5017550;28;20577;-86
2024/02/08 13:30:15;;;;;;;37.63;34.13;;;4.30;86.70;;;;;;5019666;28;20181;-90
2024/02/08 13:32:55;;;;;;;39.20;35.50;;;4.30;86.80;;;;;;5037241;28;20157;-87
2024/02/08 13:35:22;;;;;;;37.53;33.47;;;4.30;86.70;;;;;;5037083;28;20152;-88
2024/02/08 13:37:51;;;;;;;36.20;32.53;;;4.30;86.70;;;;;;5019555;28;20283;-86
2024/02/08 13:40:18;;;;;;;36.93;33.37;;;4.30;86.90;;;;;;5036667;28;20173;-88
2024/02/08 13:42:45;;;;;;;36.47;33.13;;;4.20;87.00;;;;;;5036637;28;20169;-88
2024/02/08 13:45:13;;;;;;;37.33;33.80;;;4.10;87.00;;;;;;5018982;28;20177;-87
2024/02/08 13:47:41;;;;;;;38.20;34.57;;;4.10;87.20;;;;;;5036531;28;20192;-87
2024/02/08 13:50:10;;;;;;;38.50;34.80;;;4.10;87.60;;;;;;5018652;28;20745;-86
2024/02/08 13:52:37;;;;;;;28.03;25.07;;;4.20;87.60;;;;;;5018928;28;20192;-87
2024/02/08 13:55:07;;;;;;;29.40;26.40;;;4.40;87.20;;;;;;5017817;28;20421;-88
2024/02/08 13:57:38;;;;;;;30.33;25.60;;;4.40;87.10;;;;;;5036733;28;20192;-88
2024/02/08 14:00:08;;;;;;;;;;;4.50;86.80;;;;;;5036611;28;20168;-88
2024/02/08 14:02:36;;;;;;;40.13;36.20;;;4.50;86.70;;;;;;5018662;28;19905;-88
2024/02/08 14:05:16;;;;;;;39.97;35.63;;;4.40;86.70;;;;;;5018379;28;20547;-88
2024/02/08 14:07:43;;;;;;;41.10;36.60;;;4.40;86.60;;;;;;5036058;28;20201;-88
2024/02/08 14:10:12;;;;;;;41.27;35.30;;;4.50;86.60;;;;;;5018298;28;20242;-86
2024/02/08 14:12:45;;;;;;;40.70;35.30;;;4.50;86.50;;;;;;5019469;28;20194;-88
2024/02/08 14:15:11;;;;;;;38.97;35.27;;;4.50;86.50;;;;;;5019243;28;20207;-88
2024/02/08 14:17:37;;;;;;;38.70;34.90;;;4.40;86.50;;;;;;5036006;28;20684;-88
2024/02/08 14:20:30;;;;;;;38.33;34.87;;;4.40;86.70;;;;;;5018303;28;20314;-87
2024/02/08 14:22:59;;;;;;;38.30;34.53;;;4.30;86.70;;;;;;5035824;28;20549;-87
2024/02/08 14:25:37;;;;;;;36.97;33.23;;;4.50;86.70;;;;;;5018152;28;20168;-87
2024/02/08 14:28:09;;;;;;;37.40;33.70;;;4.50;86.60;;;;;;5035753;28;20216;-87
2024/02/08 14:30:40;;;;;;;37.90;33.87;;;4.40;86.50;;;;;;5018264;28;20176;-88
2024/02/08 14:33:07;;;;;;;37.43;33.43;;;4.40;86.60;;;;;;5036875;28;20157;-87
2024/02/08 14:35:33;;;;;;;36.67;33.27;;;4.40;86.90;;;;;;5036274;28;20173;-87
2024/02/08 14:37:59;;;;;;;40.23;35.93;;;4.50;87.00;;;;;;5017746;28;20204;-87
2024/02/08 14:40:27;;;;;;;36.70;33.03;;;4.50;86.80;;;;;;5017949;28;20196;-88
2024/02/08 14:42:57;;;;;;;33.87;30.37;;;4.50;86.70;;;;;;5018023;28;20177;-88
2024/02/08 14:45:35;;;;;;;28.03;23.33;;;4.50;86.60;;;;;;5017866;28;20168;-87
2024/02/08 14:48:02;;;;;;;36.43;23.53;;;4.50;86.50;;;;;;5035734;28;20189;-87
2024/02/08 14:50:48;;;;;;;28.23;23.70;;;4.50;86.50;;;;;;5018104;28;20668;-87
2024/02/08 14:53:17;;;;;;;26.80;22.27;;;4.50;86.60;;;;;;5017839;28;20197;-87
2024/02/08 14:55:46;;;;;;;29.67;21.80;;;4.50;86.80;;;;;;5017724;28;20338;-87
2024/02/08 14:58:32;;;;;;;26.80;23.30;;;4.40;86.80;;;;;;5017679;28;20584;-87
2024/02/08 15:01:30;;;;;;;24.33;21.23;;;4.40;86.90;;;;;;5035569;28;20180;-88
2024/02/08 15:03:58;;;;;;;25.30;22.03;;;4.40;87.00;;;;;;5036089;28;20575;-87